Time;durP1;ratioP1;P1;durP2;ratioP2;P2;SDS_P1;SDS_P2;PMS_P1;PMS_P2;Temp;Humidity;BMP_temperature;BMP_pressure;BME280_temperature;BME280_humidity;BME280_pressure;Samples;Min_cycle;Max_cycle;Signal;HPM_P1;HPM_P2
2022/03/29 00:01:14;;;;;;;9.30;7.72;;;8.10;85.60;;;;;;5091775;28;20223;-69
2022/03/29 00:03:41;;;;;;;12.07;8.40;;;8.10;85.50;;;;;;5091992;28;20204;-69
2022/03/29 00:06:08;;;;;;;11.30;8.07;;;8.10;85.90;;;;;;5091557;28;20220;-69
2022/03/29 00:08:35;;;;;;;10.48;8.10;;;8.00;85.90;;;;;;5091285;28;20207;-69
2022/03/29 00:11:01;;;;;;;10.70;8.15;;;8.00;85.70;;;;;;5091613;28;20210;-69
2022/03/29 00:13:28;;;;;;;12.65;7.88;;;8.00;86.30;;;;;;5090876;28;20569;-70
2022/03/29 00:15:56;;;;;;;12.50;8.00;;;7.90;86.10;;;;;;5091485;28;20223;-70
2022/03/29 00:18:23;;;;;;;10.07;7.18;;;7.90;86.40;;;;;;5091146;28;20203;-70
2022/03/29 00:20:49;;;;;;;10.57;7.30;;;7.90;86.80;;;;;;5091471;28;20219;-69
2022/03/29 00:23:18;;;;;;;8.70;7.15;;;7.90;87.20;;;;;;5091443;28;20206;-69
2022/03/29 00:25:44;;;;;;;11.10;7.78;;;7.90;87.20;;;;;;5091511;28;20220;-70
2022/03/29 00:28:11;;;;;;;12.50;7.65;;;7.90;87.10;;;;;;5090793;28;20204;-69
2022/03/29 00:30:38;;;;;;;9.35;7.18;;;7.90;87.50;;;;;;5091234;28;20591;-70
2022/03/29 00:33:07;;;;;;;10.57;7.80;;;7.90;87.60;;;;;;5091308;28;20257;-69
2022/03/29 00:35:34;;;;;;;9.10;7.15;;;7.80;87.70;;;;;;5091323;28;20231;-69
2022/03/29 00:38:01;;;;;;;10.20;6.70;;;7.80;87.50;;;;;;5090604;28;20688;-70
2022/03/29 00:40:28;;;;;;;8.00;7.03;;;7.80;87.50;;;;;;5091113;28;20671;-69
2022/03/29 00:42:55;;;;;;;9.20;7.80;;;7.80;87.80;;;;;;5090488;28;20235;-70
2022/03/29 00:45:23;;;;;;;11.70;8.25;;;7.80;88.00;;;;;;5091247;28;20220;-70
2022/03/29 00:47:50;;;;;;;9.25;8.05;;;7.90;88.60;;;;;;5090255;28;20204;-69
2022/03/29 00:50:18;;;;;;;9.52;7.80;;;7.90;89.00;;;;;;5091074;28;20667;-70
2022/03/29 00:52:45;;;;;;;11.43;7.93;;;7.90;87.80;;;;;;5090837;28;20565;-69
2022/03/29 00:55:13;;;;;;;10.20;7.57;;;7.90;88.60;;;;;;5090754;28;20559;-70
2022/03/29 00:57:40;;;;;;;9.27;7.35;;;7.90;89.10;;;;;;5090300;28;20246;-70
2022/03/29 01:00:07;;;;;;;8.43;7.53;;;7.90;89.00;;;;;;5090552;28;20219;-69
2022/03/29 01:02:34;;;;;;;15.07;7.80;;;7.90;89.10;;;;;;5090959;28;20292;-69
2022/03/29 01:05:01;;;;;;;10.98;7.10;;;7.90;89.20;;;;;;5090146;28;20243;-69
2022/03/29 01:07:29;;;;;;;12.15;7.15;;;7.80;89.50;;;;;;5090425;28;20227;-69
2022/03/29 01:09:58;;;;;;;12.15;8.13;;;7.80;89.50;;;;;;5090501;28;20211;-70
2022/03/29 01:12:24;;;;;;;8.55;6.50;;;7.80;89.80;;;;;;5088425;28;20227;-69
2022/03/29 01:14:52;;;;;;;10.82;7.97;;;7.80;90.00;;;;;;5090291;28;20195;-70
2022/03/29 01:20:09;;;;;;;10.82;7.95;;;7.70;90.00;;;;;;5090495;28;20194;-69
2022/03/29 01:22:39;;;;;;;12.25;7.93;;;7.70;90.10;;;;;;5090348;28;20831;-69
2022/03/29 01:25:08;;;;;;;11.70;7.90;;;7.60;90.10;;;;;;5090183;28;20223;-70
2022/03/29 01:27:36;;;;;;;12.77;9.10;;;7.60;90.10;;;;;;5090021;28;20202;-70
2022/03/29 01:30:03;;;;;;;16.08;8.40;;;7.50;90.20;;;;;;5088997;28;20681;-70
2022/03/29 01:32:31;;;;;;;11.38;7.80;;;7.50;90.30;;;;;;5090542;28;20207;-70
2022/03/29 01:34:59;;;;;;;13.68;8.30;;;7.40;90.00;;;;;;5089666;28;20216;-69
2022/03/29 01:37:26;;;;;;;10.55;8.27;;;7.40;90.20;;;;;;5089937;28;20242;-69
2022/03/29 01:39:54;;;;;;;10.27;7.40;;;7.50;89.90;;;;;;5090124;28;20203;-70
2022/03/29 01:42:20;;;;;;;13.32;7.55;;;7.50;88.90;;;;;;5090047;28;20238;-69
2022/03/29 01:44:47;;;;;;;11.30;7.97;;;7.60;87.20;;;;;;5089984;28;20239;-70
2022/03/29 01:47:19;;;;;;;10.90;7.97;;;7.70;87.80;;;;;;5089374;28;20573;-69
2022/03/29 01:49:45;;;;;;;10.65;8.82;;;7.80;87.60;;;;;;5090002;28;20663;-70
2022/03/29 01:52:12;;;;;;;12.70;7.75;;;7.80;88.70;;;;;;5090224;28;20200;-69
2022/03/29 01:54:39;;;;;;;11.10;8.05;;;7.90;86.80;;;;;;5090156;28;20253;-70
2022/03/29 01:57:07;;;;;;;9.57;7.68;;;7.90;85.90;;;;;;5089226;28;20246;-67
2022/03/29 02:02:15;;;;;;;11.32;7.85;;;8.10;85.60;;;;;;5109345;28;20328;-69
2022/03/29 02:04:41;;;;;;;12.40;8.82;;;8.10;86.30;;;;;;5102476;28;20616;-69
2022/03/29 02:07:08;;;;;;;10.77;8.05;;;8.20;86.30;;;;;;5093310;28;20231;-69
2022/03/29 02:09:35;;;;;;;11.30;8.15;;;8.20;85.10;;;;;;5093963;28;20204;-69
2022/03/29 02:12:03;;;;;;;15.43;8.50;;;8.20;84.00;;;;;;5091740;28;20823;-69
2022/03/29 02:14:34;;;;;;;9.50;7.20;;;8.30;83.40;;;;;;5094121;28;20204;-69
2022/03/29 02:17:00;;;;;;;11.50;8.00;;;8.40;81.80;;;;;;5092762;28;20225;-69
2022/03/29 02:19:27;;;;;;;10.60;7.75;;;8.50;82.20;;;;;;5093992;28;20203;-68
2022/03/29 02:21:54;;;;;;;13.50;7.57;;;8.50;83.20;;;;;;5093259;28;20228;-68
2022/03/29 02:24:20;;;;;;;10.48;8.45;;;8.50;84.10;;;;;;5094158;28;20693;-69
2022/03/29 02:26:47;;;;;;;15.82;8.85;;;8.40;83.30;;;;;;5092902;28;20724;-69
2022/03/29 02:29:14;;;;;;;10.77;8.40;;;8.40;84.70;;;;;;5093155;28;20204;-69
2022/03/29 02:31:42;;;;;;;11.07;8.40;;;8.40;84.10;;;;;;5093670;28;20605;-69
2022/03/29 02:34:09;;;;;;;12.82;7.00;;;8.30;83.20;;;;;;5093159;28;20208;-69
2022/03/29 02:36:35;;;;;;;13.85;9.05;;;8.30;84.10;;;;;;5093839;28;20242;-69
2022/03/29 02:39:02;;;;;;;13.68;7.80;;;8.30;84.00;;;;;;5093415;28;20196;-69
2022/03/29 02:41:29;;;;;;;9.90;7.93;;;8.30;82.90;;;;;;5093545;28;20220;-68
2022/03/29 02:43:55;;;;;;;12.50;7.70;;;8.30;81.50;;;;;;5093478;28;20589;-69
2022/03/29 02:46:22;;;;;;;13.10;8.02;;;8.50;79.60;;;;;;5093291;28;20226;-69
2022/03/29 02:48:50;;;;;;;13.18;7.47;;;8.70;78.80;;;;;;5091413;28;20621;-69
2022/03/29 02:51:17;;;;;;;9.02;7.47;;;8.80;78.90;;;;;;5093275;28;20206;-69
2022/03/29 02:53:44;;;;;;;11.35;8.10;;;9.00;77.30;;;;;;5093052;28;20288;-68
2022/03/29 02:56:11;;;;;;;9.93;7.55;;;9.20;76.60;;;;;;5093226;28;20227;-69
2022/03/29 02:58:38;;;;;;;8.70;7.15;;;9.30;75.80;;;;;;5116274;22;20227;-68
2022/03/29 03:01:05;;;;;;;10.70;8.15;;;9.50;75.40;;;;;;5113242;28;20309;-68
2022/03/29 03:03:32;;;;;;;11.07;6.68;;;9.70;74.80;;;;;;5113365;28;20194;-68
2022/03/29 03:06:00;;;;;;;11.25;8.50;;;9.80;75.00;;;;;;5101780;28;20284;-68
2022/03/29 03:08:27;;;;;;;10.63;7.90;;;9.80;74.40;;;;;;5092604;28;20200;-68
2022/03/29 03:10:53;;;;;;;13.88;8.05;;;9.90;73.90;;;;;;5092515;28;20195;-68
2022/03/29 03:13:20;;;;;;;10.90;8.10;;;10.00;72.70;;;;;;5092988;28;20208;-68
2022/03/29 03:15:47;;;;;;;10.30;7.47;;;10.10;72.80;;;;;;5099561;28;20226;-68
2022/03/29 03:18:13;;;;;;;15.52;8.13;;;10.10;72.40;;;;;;5111821;28;20210;-68
2022/03/29 03:20:41;;;;;;;13.05;7.10;;;10.20;72.80;;;;;;5112955;28;20203;-68
2022/03/29 03:23:09;;;;;;;9.63;7.55;;;10.20;72.70;;;;;;5112803;28;20567;-68
2022/03/29 03:25:36;;;;;;;10.87;7.93;;;10.20;72.90;;;;;;5112737;28;20245;-67
2022/03/29 03:28:03;;;;;;;9.30;7.43;;;10.20;73.10;;;;;;5111828;28;20465;-67
2022/03/29 03:30:29;;;;;;;11.63;8.30;;;10.10;72.80;;;;;;5112977;28;20206;-68
2022/03/29 03:32:56;;;;;;;8.45;7.55;;;10.10;73.90;;;;;;5095206;28;20450;-67
2022/03/29 03:35:23;;;;;;;10.67;7.93;;;10.10;74.10;;;;;;5096899;28;20730;-68
2022/03/29 03:37:50;;;;;;;9.00;7.70;;;10.00;74.80;;;;;;5101199;28;20951;-67
2022/03/29 03:40:18;;;;;;;9.77;7.70;;;9.90;75.60;;;;;;5100946;28;20485;-67
2022/03/29 03:42:45;;;;;;;10.80;7.35;;;9.90;76.90;;;;;;5099497;28;20478;-66
2022/03/29 03:45:12;;;;;;;11.77;8.15;;;9.80;77.90;;;;;;5100678;28;20272;-67
2022/03/29 03:47:39;;;;;;;11.10;8.10;;;9.60;78.30;;;;;;5100953;28;20200;-67
2022/03/29 03:50:07;;;;;;;14.20;7.80;;;9.50;79.00;;;;;;5099554;28;20254;-67
2022/03/29 03:52:33;;;;;;;8.35;7.25;;;9.40;79.10;;;;;;5100473;28;20214;-67
2022/03/29 03:55:00;;;;;;;13.10;8.15;;;9.30;79.90;;;;;;5101275;28;20212;-67
2022/03/29 03:57:28;;;;;;;8.43;7.32;;;9.20;80.60;;;;;;5093122;28;20207;-66
2022/03/29 03:59:56;;;;;;;10.45;7.70;;;9.10;81.20;;;;;;5091256;28;20203;-67
2022/03/29 04:02:23;;;;;;;12.52;7.68;;;9.00;81.40;;;;;;5099736;28;20377;-68
2022/03/29 04:04:50;;;;;;;13.05;8.80;;;8.90;80.40;;;;;;5100980;28;20547;-70
2022/03/29 04:07:16;;;;;;;12.60;7.80;;;8.80;79.70;;;;;;5100145;28;20215;-67
2022/03/29 04:09:43;;;;;;;10.70;7.82;;;8.70;80.50;;;;;;5101294;28;20210;-68
2022/03/29 04:12:11;;;;;;;11.10;7.25;;;8.70;80.80;;;;;;5098053;28;20681;-67
2022/03/29 04:14:39;;;;;;;16.15;9.25;;;8.70;80.90;;;;;;5101166;28;20199;-68
2022/03/29 04:17:06;;;;;;;11.45;9.20;;;8.70;81.60;;;;;;5099669;28;20504;-67
2022/03/29 04:19:33;;;;;;;12.05;8.27;;;8.70;81.90;;;;;;5100471;28;20196;-67
2022/03/29 04:22:00;;;;;;;16.25;9.18;;;8.60;82.70;;;;;;5099613;28;20268;-67
2022/03/29 04:24:27;;;;;;;13.98;8.50;;;8.60;82.30;;;;;;5105478;28;20278;-67
2022/03/29 04:26:53;;;;;;;13.20;8.85;;;8.60;82.00;;;;;;5109861;28;20219;-68
2022/03/29 04:29:20;;;;;;;12.68;8.00;;;8.50;82.10;;;;;;5110883;28;20199;-67
2022/03/29 04:31:48;;;;;;;12.85;8.20;;;8.50;82.30;;;;;;5108534;28;20199;-66
2022/03/29 04:34:15;;;;;;;16.70;7.93;;;8.40;83.70;;;;;;5089113;28;20203;-67
2022/03/29 04:36:42;;;;;;;12.38;8.25;;;8.30;83.40;;;;;;5089719;28;20230;-67
2022/03/29 04:39:09;;;;;;;13.88;8.55;;;8.10;84.20;;;;;;5089942;28;20211;-67
2022/03/29 04:41:35;;;;;;;11.43;8.30;;;8.00;84.20;;;;;;5090210;28;20222;-67
2022/03/29 04:44:02;;;;;;;12.63;8.75;;;7.90;85.50;;;;;;5089978;28;20196;-67
2022/03/29 04:46:29;;;;;;;14.95;8.82;;;7.90;85.20;;;;;;5091005;28;20231;-67
2022/03/29 04:48:57;;;;;;;11.70;7.85;;;7.80;84.90;;;;;;5090111;28;20210;-68
2022/03/29 04:51:24;;;;;;;12.13;8.50;;;7.80;85.30;;;;;;5091159;28;20199;-67
2022/03/29 04:53:50;;;;;;;11.05;7.90;;;7.70;85.60;;;;;;5090579;28;20203;-67
2022/03/29 04:56:17;;;;;;;12.27;7.38;;;7.70;86.20;;;;;;5090510;28;20219;-69
2022/03/29 04:58:44;;;;;;;10.50;8.43;;;7.60;87.20;;;;;;5090288;28;20214;-67
2022/03/29 05:01:11;;;;;;;11.60;7.97;;;7.60;87.10;;;;;;5088102;28;20196;-67
2022/03/29 05:03:37;;;;;;;8.77;7.22;;;7.50;87.40;;;;;;5090854;28;20200;-67
2022/03/29 05:06:06;;;;;;;9.60;7.47;;;7.50;87.10;;;;;;5090129;28;20230;-67
2022/03/29 05:08:32;;;;;;;8.90;7.93;;;7.40;87.60;;;;;;5090040;28;20207;-67
2022/03/29 05:10:59;;;;;;;13.80;8.45;;;7.40;87.80;;;;;;5090442;28;20230;-67
2022/03/29 05:13:26;;;;;;;10.07;7.60;;;7.40;87.90;;;;;;5089569;28;20287;-67
2022/03/29 05:15:53;;;;;;;10.95;7.90;;;7.30;87.70;;;;;;5090347;28;20635;-67
2022/03/29 05:18:19;;;;;;;11.98;7.18;;;7.30;86.80;;;;;;5094466;28;20603;-68
2022/03/29 05:20:46;;;;;;;13.57;7.63;;;7.20;87.40;;;;;;5111163;28;20671;-68
2022/03/29 05:23:16;;;;;;;10.30;7.00;;;7.10;87.70;;;;;;5110998;28;20589;-67
2022/03/29 05:25:43;;;;;;;11.50;7.63;;;7.10;88.50;;;;;;5111076;28;20611;-68
2022/03/29 05:28:10;;;;;;;9.43;7.43;;;7.00;88.40;;;;;;5105461;28;20570;-68
2022/03/29 05:30:37;;;;;;;11.70;7.97;;;7.10;88.60;;;;;;5090227;28;20265;-68
2022/03/29 05:33:04;;;;;;;11.57;7.88;;;7.10;88.60;;;;;;5090069;28;20230;-68
2022/03/29 05:35:33;;;;;;;11.02;7.70;;;7.10;88.60;;;;;;5089905;28;20219;-68
2022/03/29 05:38:02;;;;;;;13.55;8.35;;;7.10;88.70;;;;;;5089861;28;20286;-68
2022/03/29 05:40:30;;;;;;;16.00;8.30;;;7.20;88.10;;;;;;5092428;28;20199;-68
2022/03/29 05:42:57;;;;;;;11.40;7.47;;;7.20;87.80;;;;;;5093197;28;20233;-68
2022/03/29 05:45:24;;;;;;;11.40;7.50;;;7.30;87.30;;;;;;5094439;28;20232;-68
2022/03/29 05:50:36;;;;;;;9.73;7.70;;;7.50;86.80;;;;;;5094359;28;20283;-69
2022/03/29 05:53:03;;;;;;;11.88;7.43;;;7.60;87.70;;;;;;5093925;28;20219;-68
2022/03/29 05:55:31;;;;;;;8.85;7.40;;;7.60;88.20;;;;;;5094819;28;20230;-68
2022/03/29 05:57:58;;;;;;;11.60;7.03;;;7.60;88.60;;;;;;5092245;28;20686;-68
2022/03/29 06:00:26;;;;;;;13.35;8.52;;;7.60;88.90;;;;;;5094000;28;20203;-68
2022/03/29 06:02:54;;;;;;;10.60;7.32;;;7.60;89.50;;;;;;5093853;28;20230;-68
2022/03/29 06:05:20;;;;;;;11.90;8.25;;;7.60;88.90;;;;;;5093519;28;20255;-68
2022/03/29 06:07:47;;;;;;;11.73;6.82;;;7.60;89.30;;;;;;5093511;28;20199;-68
2022/03/29 06:10:14;;;;;;;12.77;8.68;;;7.60;89.90;;;;;;5093905;28;20204;-69
2022/03/29 06:12:45;;;;;;;9.55;7.40;;;7.70;90.10;;;;;;5092743;28;20291;-69
2022/03/29 06:15:13;;;;;;;9.63;8.15;;;7.70;90.20;;;;;;5094121;28;20256;-69
2022/03/29 06:17:40;;;;;;;12.60;7.65;;;7.70;90.10;;;;;;5089239;28;20195;-68
2022/03/29 06:20:09;;;;;;;12.02;8.80;;;7.80;90.10;;;;;;5107997;28;20639;-68
2022/03/29 06:22:39;;;;;;;11.00;7.45;;;7.90;89.90;;;;;;5113674;28;20313;-69
2022/03/29 06:25:08;;;;;;;12.52;7.20;;;8.10;90.10;;;;;;5112214;28;20226;-68
2022/03/29 06:27:34;;;;;;;10.88;8.82;;;8.10;90.20;;;;;;5112825;28;20801;-68
2022/03/29 06:30:04;;;;;;;12.10;9.38;;;8.30;90.20;;;;;;5113101;28;20209;-69
2022/03/29 06:32:31;;;;;;;10.05;8.52;;;8.40;90.10;;;;;;5112322;28;20236;-68
2022/03/29 06:34:57;;;;;;;11.45;8.75;;;8.50;90.20;;;;;;5112185;28;20280;-68
2022/03/29 06:37:24;;;;;;;13.90;9.32;;;8.70;90.50;;;;;;5112734;28;20199;-68
2022/03/29 06:39:51;;;;;;;11.13;7.60;;;8.70;90.30;;;;;;5112165;28;20203;-69
2022/03/29 06:42:19;;;;;;;9.70;8.00;;;8.90;90.10;;;;;;5111253;28;20304;-69
2022/03/29 06:44:47;;;;;;;13.13;8.90;;;8.90;90.20;;;;;;5112432;28;20256;-68
2022/03/29 06:47:16;;;;;;;12.95;9.13;;;9.00;89.40;;;;;;5110862;28;20631;-69
2022/03/29 06:49:43;;;;;;;13.73;9.27;;;9.10;87.10;;;;;;5105640;28;20290;-69
2022/03/29 06:52:10;;;;;;;19.38;10.48;;;9.20;84.20;;;;;;5112667;28;20569;-69
2022/03/29 06:54:37;;;;;;;13.88;9.85;;;9.40;83.90;;;;;;5112606;28;20227;-69
2022/03/29 06:57:05;;;;;;;13.18;8.85;;;9.50;83.50;;;;;;5111997;28;20294;-69
2022/03/29 06:59:31;;;;;;;14.95;8.75;;;9.70;84.20;;;;;;5112465;28;20213;-69
2022/03/29 07:01:58;;;;;;;13.30;8.88;;;9.80;84.50;;;;;;5112433;28;20260;-69
2022/03/29 07:04:26;;;;;;;11.57;8.80;;;10.00;84.80;;;;;;5112776;28;20202;-69
2022/03/29 07:06:53;;;;;;;14.55;9.40;;;10.10;84.30;;;;;;5090913;28;20230;-69
2022/03/29 07:12:04;;;;;;;12.33;8.60;;;10.50;83.90;;;;;;5092033;28;20190;-69
2022/03/29 07:14:31;;;;;;;19.33;9.30;;;10.60;84.60;;;;;;5090752;28;20862;-69
2022/03/29 07:16:59;;;;;;;15.60;9.43;;;10.80;84.20;;;;;;5090483;28;20482;-69
2022/03/29 07:19:27;;;;;;;14.17;9.50;;;10.90;83.70;;;;;;5091545;28;21071;-69
2022/03/29 07:21:54;;;;;;;10.90;8.83;;;11.10;84.00;;;;;;5091732;28;20511;-69
2022/03/29 07:24:21;;;;;;;11.50;9.60;;;11.20;83.20;;;;;;5091363;28;20462;-69
2022/03/29 07:26:48;;;;;;;10.83;8.30;;;11.40;82.00;;;;;;5091071;28;20477;-69
2022/03/29 07:29:15;;;;;;;12.03;9.13;;;11.50;81.60;;;;;;5091270;28;20527;-69
2022/03/29 07:31:42;;;;;;;19.97;10.07;;;11.60;82.10;;;;;;5090945;28;20461;-69
2022/03/29 07:34:08;;;;;;;13.77;9.50;;;11.80;82.40;;;;;;5091465;28;20953;-69
2022/03/29 07:36:36;;;;;;;15.73;10.60;;;12.00;81.80;;;;;;5090492;28;21002;-70
2022/03/29 07:39:04;;;;;;;16.40;11.73;;;12.10;81.80;;;;;;5090844;28;20468;-69
2022/03/29 07:41:30;;;;;;;16.60;11.00;;;12.30;81.60;;;;;;5091278;28;20481;-69
2022/03/29 07:43:57;;;;;;;15.93;11.30;;;12.50;82.30;;;;;;5091132;28;20485;-69
2022/03/29 07:46:24;;;;;;;13.00;9.20;;;12.70;81.30;;;;;;5090742;28;20489;-69
2022/03/29 07:48:50;;;;;;;13.60;10.00;;;12.80;80.90;;;;;;5090598;28;20457;-69
2022/03/29 07:51:17;;;;;;;16.20;10.90;;;13.00;79.90;;;;;;5091338;28;20457;-69
2022/03/29 07:53:45;;;;;;;16.60;11.30;;;13.30;78.10;;;;;;5090999;28;20828;-69
2022/03/29 07:56:12;;;;;;;17.50;10.33;;;13.60;77.10;;;;;;5090809;28;20489;-69
2022/03/29 07:58:39;;;;;;;15.60;10.87;;;13.70;77.70;;;;;;5089880;28;20473;-69
2022/03/29 08:01:06;;;;;;;17.73;11.83;;;13.90;79.00;;;;;;5090544;28;20453;-69
2022/03/29 08:03:33;;;;;;;11.97;9.63;;;14.10;78.50;;;;;;5090409;28;21030;-69
2022/03/29 08:06:01;;;;;;;12.37;9.73;;;14.30;78.80;;;;;;5090350;28;21087;-69
2022/03/29 08:08:30;;;;;;;14.40;10.70;;;14.60;77.10;;;;;;5090114;28;20488;-69
2022/03/29 08:10:58;;;;;;;12.70;9.87;;;14.90;78.20;;;;;;5090999;28;20488;-69
2022/03/29 08:13:25;;;;;;;15.13;10.60;;;15.20;77.00;;;;;;5091316;28;20457;-69
2022/03/29 08:15:55;;;;;;;11.77;9.07;;;15.50;75.80;;;;;;5088218;28;20559;-70
2022/03/29 08:18:22;;;;;;;13.20;9.60;;;15.40;74.30;;;;;;5090461;28;20462;-69
2022/03/29 08:20:49;;;;;;;14.47;9.97;;;15.00;72.70;;;;;;5090680;28;20975;-69
2022/03/29 08:23:16;;;;;;;13.03;10.00;;;14.90;73.90;;;;;;5090172;28;20480;-69
2022/03/29 08:25:44;;;;;;;10.87;8.80;;;15.20;74.20;;;;;;5090483;28;20481;-70
2022/03/29 08:28:13;;;;;;;13.43;9.53;;;15.40;74.40;;;;;;5090356;28;20462;-69
2022/03/29 08:30:40;;;;;;;10.30;9.20;;;15.80;73.80;;;;;;5090584;28;20544;-69
2022/03/29 08:33:07;;;;;;;12.10;9.40;;;16.00;71.90;;;;;;5090042;28;20504;-69
2022/03/29 08:35:37;;;;;;;11.83;9.10;;;16.10;71.80;;;;;;5090293;28;20900;-70
2022/03/29 08:38:04;;;;;;;11.87;8.50;;;15.90;70.80;;;;;;5089705;28;20454;-69
2022/03/29 08:40:31;;;;;;;13.10;8.67;;;15.70;68.90;;;;;;5090529;28;20465;-69
2022/03/29 08:43:00;;;;;;;12.50;8.37;;;15.50;69.40;;;;;;5090409;28;20826;-69
2022/03/29 08:45:30;;;;;;;11.87;8.30;;;15.40;69.70;;;;;;5102772;28;20500;-69
2022/03/29 08:47:58;;;;;;;11.40;9.37;;;15.30;72.10;;;;;;5109710;28;20460;-69
2022/03/29 08:50:27;;;;;;;12.17;8.73;;;15.40;71.60;;;;;;5110934;28;20466;-69
2022/03/29 08:52:54;;;;;;;11.87;8.97;;;15.50;68.50;;;;;;5110198;28;20456;-70
2022/03/29 08:55:22;;;;;;;13.70;9.47;;;15.50;71.40;;;;;;5110636;28;20477;-70
2022/03/29 08:57:52;;;;;;;14.23;8.97;;;16.00;73.00;;;;;;5109377;28;20555;-69
2022/03/29 09:00:19;;;;;;;13.43;9.20;;;16.40;72.30;;;;;;5111104;28;20459;-69
2022/03/29 09:02:47;;;;;;;12.70;9.53;;;16.90;70.30;;;;;;5110449;28;20487;-69
2022/03/29 09:05:15;;;;;;;15.67;9.63;;;17.30;70.20;;;;;;5110093;28;20880;-67
2022/03/29 09:07:51;;;;;;;15.60;9.60;;;17.70;71.40;;;;;;5109717;28;20463;-67
2022/03/29 09:10:18;;;;;;;14.17;10.53;;;18.40;70.30;;;;;;5109873;28;20492;-67
2022/03/29 09:12:45;;;;;;;13.17;9.50;;;18.60;67.80;;;;;;5109242;28;20465;-68
2022/03/29 09:15:12;;;;;;;10.37;9.17;;;18.60;67.30;;;;;;5109914;28;20476;-68
2022/03/29 09:17:41;;;;;;;12.30;9.53;;;18.40;67.80;;;;;;5109497;28;20464;-67
2022/03/29 09:20:11;;;;;;;15.20;10.33;;;18.30;67.90;;;;;;5110626;28;20464;-67
2022/03/29 09:22:44;;;;;;;13.10;9.30;;;18.20;67.70;;;;;;5109804;28;20486;-67
2022/03/29 09:25:14;;;;;;;13.33;10.03;;;18.40;66.60;;;;;;5109774;28;20986;-67
2022/03/29 09:28:05;;;;;;;11.70;10.00;;;18.50;67.40;;;;;;5109515;28;20456;-69
2022/03/29 09:30:38;;;;;;;15.30;10.03;;;18.90;67.00;;;;;;5094980;28;20550;-68
2022/03/29 09:33:07;;;;;;;17.00;9.80;;;19.40;65.20;;;;;;5109970;28;20964;-68
2022/03/29 09:35:51;;;;;;;16.10;11.10;;;20.10;65.70;;;;;;5109258;28;20468;-67
2022/03/29 09:38:23;;;;;;;12.10;9.13;;;20.40;63.10;;;;;;5109371;28;20461;-67
2022/03/29 09:40:50;;;;;;;9.87;8.87;;;20.80;63.20;;;;;;5097582;28;20975;-67
2022/03/29 09:43:17;;;;;;;11.37;9.73;;;21.00;63.80;;;;;;5088810;28;20886;-68
2022/03/29 09:45:47;;;;;;;12.90;9.40;;;21.10;61.40;;;;;;5087943;28;21000;-67
2022/03/29 09:48:28;;;;;;;15.53;9.80;;;21.00;60.70;;;;;;5088761;28;20556;-68
2022/03/29 09:50:57;;;;;;;12.43;8.00;;;21.00;62.00;;;;;;5089728;28;20462;-68
2022/03/29 09:53:34;;;;;;;13.87;9.30;;;20.80;58.80;;;;;;5089275;28;20457;-68
2022/03/29 09:56:01;;;;;;;12.50;9.57;;;20.80;60.00;;;;;;5087711;28;20500;-68
2022/03/29 09:58:28;;;;;;;10.33;9.07;;;20.40;60.10;;;;;;5088112;28;20466;-68
2022/03/29 10:00:56;;;;;;;16.70;10.77;;;20.00;60.20;;;;;;5089198;28;20462;-68
2022/03/29 10:03:26;;;;;;;12.93;10.40;;;19.80;61.70;;;;;;5089572;28;20520;-69
2022/03/29 10:06:01;;;;;;;20.20;11.50;;;19.70;63.10;;;;;;5088409;28;20527;-68
2022/03/29 10:11:17;;;;;;;11.87;9.07;;;20.60;63.80;;;;;;5088844;28;20441;-68
2022/03/29 10:13:45;;;;;;;13.40;9.23;;;21.00;60.00;;;;;;5089259;28;20965;-68
2022/03/29 10:16:13;;;;;;;12.17;9.70;;;20.80;60.30;;;;;;5088459;28;20488;-68
2022/03/29 10:18:42;;;;;;;11.97;8.83;;;20.80;61.30;;;;;;5088775;28;20514;-68
2022/03/29 10:21:12;;;;;;;13.33;10.30;;;20.40;61.00;;;;;;5088762;28;20543;-68
2022/03/29 10:23:43;;;;;;;13.60;9.30;;;20.20;61.90;;;;;;5088611;28;20542;-68
2022/03/29 10:26:10;;;;;;;12.10;9.60;;;20.30;62.90;;;;;;5089887;28;21341;-68
2022/03/29 10:28:37;;;;;;;12.13;10.23;;;20.20;61.10;;;;;;5092380;28;20477;-68
2022/03/29 10:31:34;;;;;;;13.20;9.30;;;20.30;61.60;;;;;;5092798;28;20464;-68
2022/03/29 10:34:28;;;;;;;12.13;9.97;;;20.70;61.50;;;;;;5092904;28;20495;-68
2022/03/29 10:37:04;;;;;;;10.57;9.30;;;21.20;60.00;;;;;;5044482;28;20477;-68
2022/03/29 10:39:53;;;;;;;11.87;9.40;;;21.80;58.70;;;;;;5093238;28;20469;-68
2022/03/29 10:42:36;;;;;;;11.10;9.30;;;22.30;58.40;;;;;;5093020;28;20540;-69
2022/03/29 10:45:19;;;;;;;12.87;8.53;;;22.40;58.60;;;;;;5092135;28;20496;-69
2022/03/29 10:47:48;;;;;;;10.00;9.00;;;22.20;57.60;;;;;;5089587;28;20493;-68
2022/03/29 10:50:17;;;;;;;13.60;9.30;;;22.00;57.50;;;;;;5092634;28;21345;-69
2022/03/29 10:52:45;;;;;;;10.27;8.60;;;21.90;58.60;;;;;;5093550;28;20458;-68
2022/03/29 10:55:25;;;;;;;12.27;9.40;;;21.80;59.40;;;;;;5093139;28;20480;-69
2022/03/29 10:58:13;;;;;;;12.53;10.30;;;21.70;58.90;;;;;;5092301;28;20567;-70
2022/03/29 11:00:42;;;;;;;13.80;11.00;;;21.50;59.50;;;;;;5092838;28;20497;-69
2022/03/29 11:03:14;;;;;;;17.07;10.80;;;21.50;60.10;;;;;;5092521;28;20983;-69
2022/03/29 11:06:07;;;;;;;15.90;11.77;;;21.60;59.50;;;;;;5092402;28;20849;-69
2022/03/29 11:08:35;;;;;;;16.33;10.77;;;21.70;59.00;;;;;;5092122;28;20481;-69
2022/03/29 11:11:04;;;;;;;13.00;11.23;;;21.70;60.50;;;;;;5095433;28;20450;-68
2022/03/29 11:13:33;;;;;;;14.63;11.07;;;21.90;60.40;;;;;;5093094;28;20453;-68
2022/03/29 11:16:21;;;;;;;13.80;11.27;;;21.90;59.50;;;;;;5092282;28;20516;-68
2022/03/29 11:18:49;;;;;;;13.17;11.47;;;21.90;60.60;;;;;;5091490;28;20461;-69
2022/03/29 11:21:31;;;;;;;16.70;11.60;;;21.80;59.90;;;;;;5092286;28;20461;-69
2022/03/29 11:23:59;;;;;;;13.80;11.33;;;21.80;61.10;;;;;;5091438;28;20484;-69
2022/03/29 11:26:28;;;;;;;16.80;11.30;;;21.60;61.40;;;;;;5091831;28;20892;-69
2022/03/29 11:28:56;;;;;;;16.10;11.73;;;21.50;62.40;;;;;;5090997;28;20457;-69
2022/03/29 11:31:25;;;;;;;14.67;11.53;;;21.00;59.30;;;;;;5092183;28;20938;-69
2022/03/29 11:33:56;;;;;;;15.10;12.00;;;20.60;60.70;;;;;;5092503;28;20928;-69
2022/03/29 11:36:23;;;;;;;14.60;11.00;;;20.10;61.60;;;;;;5090732;28;20488;-69
2022/03/29 11:38:50;;;;;;;16.27;12.20;;;19.90;62.60;;;;;;5090613;28;20492;-69
2022/03/29 11:41:25;;;;;;;17.07;11.10;;;20.40;62.70;;;;;;5092141;28;20465;-69
2022/03/29 11:43:55;;;;;;;14.70;11.70;;;20.80;62.70;;;;;;5091347;28;20477;-69
2022/03/29 11:46:21;;;;;;;17.03;11.00;;;21.10;61.50;;;;;;5091301;28;20477;-69
2022/03/29 11:48:50;;;;;;;16.73;11.70;;;21.20;60.20;;;;;;5090842;28;20816;-69
2022/03/29 11:51:17;;;;;;;14.20;11.00;;;21.10;60.60;;;;;;5091975;28;20894;-69
2022/03/29 11:53:44;;;;;;;18.90;12.60;;;21.10;63.30;;;;;;5092328;28;20827;-69
2022/03/29 11:56:13;;;;;;;20.10;13.03;;;20.90;60.00;;;;;;5089099;28;20505;-69
2022/03/29 11:58:42;;;;;;;13.03;10.77;;;20.70;60.30;;;;;;5090931;28;20901;-69
2022/03/29 12:01:11;;;;;;;19.73;11.17;;;20.30;59.40;;;;;;5090813;28;20462;-69
2022/03/29 12:03:41;;;;;;;14.03;11.90;;;20.10;60.30;;;;;;5091624;28;20489;-69
2022/03/29 12:06:11;;;;;;;13.20;10.60;;;20.10;59.50;;;;;;5090612;28;21132;-69
2022/03/29 12:08:50;;;;;;;14.43;10.93;;;20.00;60.90;;;;;;5089991;28;20497;-69
2022/03/29 12:11:18;;;;;;;14.80;11.90;;;20.10;59.60;;;;;;5091472;28;20844;-70
2022/03/29 12:13:46;;;;;;;20.80;13.40;;;20.20;61.40;;;;;;5090732;28;20462;-70
2022/03/29 12:16:20;;;;;;;18.77;11.93;;;20.20;61.50;;;;;;5090970;28;20868;-70
2022/03/29 12:18:47;;;;;;;17.80;12.43;;;20.00;61.60;;;;;;5090862;28;20480;-70
2022/03/29 12:21:15;;;;;;;17.10;12.50;;;19.60;61.60;;;;;;5089024;28;20585;-67
2022/03/29 12:23:43;;;;;;;17.40;11.50;;;19.30;61.90;;;;;;5089736;28;20988;-67
2022/03/29 12:26:11;;;;;;;13.30;11.60;;;19.40;63.50;;;;;;5091137;28;20480;-67
2022/03/29 12:28:38;;;;;;;12.97;10.33;;;19.60;62.80;;;;;;5109145;28;20456;-68
2022/03/29 12:31:10;;;;;;;14.77;10.23;;;19.60;61.70;;;;;;5109813;28;20548;-68
2022/03/29 12:33:39;;;;;;;11.90;9.43;;;19.80;61.50;;;;;;5109886;28;20982;-68
2022/03/29 12:36:09;;;;;;;10.20;8.57;;;19.70;57.60;;;;;;5109153;28;20480;-68
2022/03/29 12:38:44;;;;;;;10.10;7.90;;;19.90;54.10;;;;;;5108941;28;20955;-68
2022/03/29 12:41:12;;;;;;;11.07;8.73;;;20.00;52.90;;;;;;5109836;28;20467;-68
2022/03/29 12:43:39;;;;;;;9.40;7.47;;;20.10;51.10;;;;;;5108613;28;20464;-68
2022/03/29 12:46:09;;;;;;;9.30;7.63;;;20.00;51.40;;;;;;5108528;28;20488;-68
2022/03/29 12:48:38;;;;;;;8.37;7.23;;;19.80;52.10;;;;;;5108550;28;20461;-68
2022/03/29 12:51:07;;;;;;;9.10;6.80;;;19.70;53.60;;;;;;5107040;28;20461;-68
2022/03/29 12:53:34;;;;;;;13.10;7.13;;;19.60;54.10;;;;;;5109221;28;20471;-68
2022/03/29 12:56:04;;;;;;;11.03;7.53;;;19.70;53.90;;;;;;5108226;28;20499;-69
2022/03/29 12:58:34;;;;;;;8.30;7.10;;;19.90;54.10;;;;;;5108412;28;20555;-68
2022/03/29 13:01:02;;;;;;;9.87;7.77;;;19.80;53.00;;;;;;5108562;28;20460;-68